Time;durP1;ratioP1;P1;durP2;ratioP2;P2;SDS_P1;SDS_P2;PMS_P1;PMS_P2;Temp;Humidity;BMP_temperature;BMP_pressure;BME280_temperature;BME280_humidity;BME280_pressure;Samples;Min_cycle;Max_cycle;Signal;HPM_P1;HPM_P2
2024/03/18 00:01:58;;;;;;;4.00;0.70;;;;;;;5.16;100.00;100095.56;86937;264;136959;-72
2024/03/18 00:03:59;;;;;;;3.90;0.70;;;;;;;5.14;100.00;100095.03;87079;270;22577;-70
2024/03/18 00:06:00;;;;;;;4.50;1.10;;;;;;;5.11;100.00;100095.52;87202;266;137350;-69
2024/03/18 00:08:01;;;;;;;3.30;0.60;;;;;;;5.07;100.00;100095.55;87064;266;23426;-70
2024/03/18 00:10:03;;;;;;;3.70;1.10;;;;;;;5.07;100.00;100095.23;87024;267;136742;-70
2024/03/18 00:12:05;;;;;;;6.10;1.40;;;;;;;5.01;100.00;100091.25;86848;271;136864;-69
2024/03/18 00:14:05;;;;;;;3.50;0.50;;;;;;;4.96;100.00;100095.23;86970;279;22581;-69
2024/03/18 00:16:06;;;;;;;3.40;0.90;;;;;;;4.92;100.00;100100.67;86880;267;138725;-70
2024/03/18 00:18:07;;;;;;;8.00;1.90;;;;;;;4.89;100.00;100102.31;87132;271;22571;-70
2024/03/18 00:20:10;;;;;;;5.90;0.90;;;;;;;4.88;100.00;100099.30;86931;274;137017;-70
2024/03/18 00:22:11;;;;;;;6.50;0.70;;;;;;;4.87;100.00;100103.41;87225;266;22571;-72
2024/03/18 00:24:12;;;;;;;4.10;0.80;;;;;;;4.84;100.00;100101.05;87042;275;137085;-71
2024/03/18 00:26:13;;;;;;;5.40;1.40;;;;;;;4.85;100.00;100102.25;86973;270;22563;-72
2024/03/18 00:28:14;;;;;;;4.00;1.40;;;;;;;4.88;100.00;100099.63;86855;272;136785;-71
2024/03/18 00:30:15;;;;;;;6.60;1.20;;;;;;;4.91;100.00;100096.38;86977;268;22563;-72
2024/03/18 00:32:18;;;;;;;3.80;0.90;;;;;;;4.91;100.00;100093.86;87002;268;136764;-71
2024/03/18 00:34:19;;;;;;;5.40;1.20;;;;;;;4.91;100.00;100093.34;87186;268;22566;-68
2024/03/18 00:36:20;;;;;;;4.80;1.20;;;;;;;4.90;100.00;100093.30;86967;275;137032;-72
2024/03/18 00:38:21;;;;;;;4.70;1.10;;;;;;;4.87;100.00;100088.77;87257;278;24088;-71
2024/03/18 00:40:22;;;;;;;6.40;1.40;;;;;;;4.90;100.00;100088.52;86868;272;137097;-71
2024/03/18 00:42:23;;;;;;;7.00;0.90;;;;;;;4.91;100.00;100087.36;87063;271;22645;-70
2024/03/18 00:44:24;;;;;;;4.50;1.30;;;;;;;4.89;100.00;100086.13;86960;273;139037;-67
2024/03/18 00:46:25;;;;;;;4.70;1.30;;;;;;;4.88;100.00;100087.58;87095;269;23736;-67
2024/03/18 00:48:26;;;;;;;7.90;1.50;;;;;;;4.90;100.00;100090.31;86965;272;136661;-68
2024/03/18 00:50:27;;;;;;;6.80;1.60;;;;;;;4.87;100.00;100091.08;87186;279;24116;-69
2024/03/18 00:52:27;;;;;;;8.80;1.60;;;;;;;4.85;100.00;100089.88;87125;267;136998;-70
2024/03/18 00:54:28;;;;;;;6.20;1.20;;;;;;;4.85;100.00;100086.70;87281;263;25102;-70
2024/03/18 00:56:30;;;;;;;3.40;1.20;;;;;;;4.85;100.00;100088.32;87112;267;136723;-70
2024/03/18 00:58:31;;;;;;;5.50;1.10;;;;;;;4.86;100.00;100089.59;87213;271;22551;-71
2024/03/18 01:00:31;;;;;;;8.40;2.20;;;;;;;4.86;100.00;100086.55;87119;270;136921;-70
2024/03/18 01:02:32;;;;;;;5.30;2.30;;;;;;;4.86;100.00;100085.70;87137;270;22575;-71
2024/03/18 01:04:33;;;;;;;5.70;1.40;;;;;;;4.86;100.00;100085.78;87005;271;136764;-70
2024/03/18 01:06:34;;;;;;;4.90;1.90;;;;;;;4.83;100.00;100085.11;87006;279;22576;-69
2024/03/18 01:08:35;;;;;;;8.30;1.30;;;;;;;4.80;100.00;100084.95;86942;267;137684;-69
2024/03/18 01:10:36;;;;;;;4.40;1.50;;;;;;;4.76;100.00;100082.66;86889;275;22552;-69
2024/03/18 01:12:36;;;;;;;3.20;1.50;;;;;;;4.72;100.00;100087.16;87022;268;137061;-71
2024/03/18 01:14:37;;;;;;;6.00;1.70;;;;;;;4.70;100.00;100087.16;87067;280;22555;-71
2024/03/18 01:16:38;;;;;;;2.50;1.40;;;;;;;4.67;100.00;100083.41;87070;271;136611;-70
2024/03/18 01:18:38;;;;;;;3.90;1.40;;;;;;;4.65;100.00;100081.38;87156;271;26958;-70
2024/03/18 01:20:39;;;;;;;7.40;1.10;;;;;;;4.61;100.00;100079.27;87018;275;136546;-70
2024/03/18 01:22:41;;;;;;;3.00;1.10;;;;;;;4.60;100.00;100076.23;87052;269;25106;-69
2024/03/18 01:24:41;;;;;;;2.10;1.20;;;;;;;4.59;100.00;100075.99;87184;267;137072;-71
2024/03/18 01:26:42;;;;;;;2.70;1.00;;;;;;;4.60;100.00;100075.55;86987;272;25150;-69
2024/03/18 01:28:43;;;;;;;3.30;0.80;;;;;;;4.62;100.00;100075.35;87002;274;138322;-70
2024/03/18 01:30:43;;;;;;;2.30;0.70;;;;;;;4.62;100.00;100073.70;86966;272;25177;-71
2024/03/18 01:32:44;;;;;;;3.70;2.30;;;;;;;4.59;100.00;100076.03;86945;272;136768;-71
2024/03/18 01:34:45;;;;;;;2.60;0.90;;;;;;;4.54;100.00;100078.84;86924;268;25003;-70
2024/03/18 01:36:45;;;;;;;4.10;0.70;;;;;;;4.51;100.00;100076.64;86866;279;136580;-69
2024/03/18 01:38:46;;;;;;;1.40;0.50;;;;;;;4.48;100.00;100078.01;87032;271;25338;-70
2024/03/18 01:40:47;;;;;;;3.50;1.20;;;;;;;4.46;100.00;100078.20;86914;271;137923;-70
2024/03/18 01:42:47;;;;;;;4.60;1.00;;;;;;;4.45;100.00;100076.90;87012;270;22596;-70
2024/03/18 01:44:55;;;;;;;4.90;0.70;;;;;;;4.43;100.00;100073.94;86935;274;136684;-70
2024/03/18 01:46:56;;;;;;;4.30;1.40;;;;;;;4.42;100.00;100077.20;87146;271;22573;-69
2024/03/18 01:48:56;;;;;;;1.90;0.90;;;;;;;4.41;100.00;100077.93;87006;266;136738;-68
2024/03/18 01:50:57;;;;;;;4.00;0.70;;;;;;;4.42;100.00;100071.92;87079;275;23048;-70
2024/03/18 01:52:58;;;;;;;4.30;0.50;;;;;;;4.41;100.00;100074.33;87001;279;136965;-69
2024/03/18 01:54:59;;;;;;;2.70;0.60;;;;;;;4.41;100.00;100071.84;87056;271;22559;-69
2024/03/18 01:57:00;;;;;;;3.90;1.10;;;;;;;4.42;100.00;100073.52;86869;272;136434;-70
2024/03/18 01:59:04;;;;;;;3.00;0.70;;;;;;;4.42;100.00;100068.02;86979;279;23766;-71
2024/03/18 02:01:07;;;;;;;4.70;0.70;;;;;;;4.40;100.00;100064.48;87239;276;137069;-69
2024/03/18 02:03:08;;;;;;;2.90;0.70;;;;;;;4.38;100.00;100065.67;86990;279;22665;-70
2024/03/18 02:05:11;;;;;;;4.60;0.80;;;;;;;4.36;100.00;100066.30;86829;268;136426;-69
2024/03/18 02:07:24;;;;;;;3.40;0.70;;;;;;;4.36;100.00;100062.86;87330;271;22552;-70
2024/03/18 02:09:25;;;;;;;1.90;0.60;;;;;;;4.33;100.00;100062.40;87157;274;136866;-71
2024/03/18 02:11:26;;;;;;;1.60;1.00;;;;;;;4.28;100.00;100064.45;87098;278;22778;-70
2024/03/18 02:13:27;;;;;;;4.20;0.80;;;;;;;4.27;100.00;100064.60;86836;273;136505;-69
2024/03/18 02:15:28;;;;;;;4.60;1.20;;;;;;;4.26;100.00;100065.36;86920;272;22549;-71
2024/03/18 02:17:29;;;;;;;2.60;0.80;;;;;;;4.26;100.00;100064.37;86845;268;136725;-71
2024/03/18 02:19:30;;;;;;;7.70;0.50;;;;;;;4.24;100.00;100062.61;87015;268;25255;-69
2024/03/18 02:21:31;;;;;;;1.30;0.40;;;;;;;4.22;100.00;100065.42;86835;270;136439;-72
2024/03/18 02:23:32;;;;;;;5.00;0.60;;;;;;;4.22;100.00;100061.41;87001;268;27321;-69
2024/03/18 02:25:32;;;;;;;3.10;0.80;;;;;;;4.22;100.00;100063.84;86954;271;137018;-70
2024/03/18 02:27:33;;;;;;;3.60;0.70;;;;;;;4.20;100.00;100064.03;87129;268;22858;-70
2024/03/18 02:29:34;;;;;;;2.90;0.80;;;;;;;4.18;100.00;100064.62;86850;267;136779;-70
2024/03/18 02:31:35;;;;;;;4.00;0.70;;;;;;;4.17;100.00;100064.40;87247;279;24158;-70
2024/03/18 02:33:36;;;;;;;3.40;0.40;;;;;;;4.14;100.00;100065.92;86704;264;138335;-71
2024/03/18 02:35:37;;;;;;;2.10;1.20;;;;;;;4.11;100.00;100063.54;86839;280;25303;-70
2024/03/18 02:37:38;;;;;;;3.40;1.50;;;;;;;4.06;100.00;100065.30;86756;271;136551;-71
2024/03/18 02:39:39;;;;;;;6.20;0.80;;;;;;;4.03;100.00;100064.19;86830;271;25883;-70
2024/03/18 02:41:40;;;;;;;5.00;0.80;;;;;;;4.03;100.00;100065.61;86856;272;152818;-70
2024/03/18 02:43:41;;;;;;;3.60;0.70;;;;;;;4.02;100.00;100064.09;87078;270;22630;-69
2024/03/18 02:45:42;;;;;;;4.30;1.00;;;;;;;4.03;100.00;100063.66;86937;266;136889;-70
2024/03/18 02:47:43;;;;;;;2.90;0.50;;;;;;;4.06;100.00;100059.13;87049;278;27190;-70
2024/03/18 02:49:44;;;;;;;2.60;1.00;;;;;;;4.06;100.00;100061.18;86958;268;136426;-68
2024/03/18 02:51:44;;;;;;;2.80;1.40;;;;;;;4.06;100.00;100058.58;87051;279;22575;-69
2024/03/18 02:53:45;;;;;;;3.30;0.90;;;;;;;4.08;100.00;100055.80;86945;275;136750;-70
2024/03/18 02:55:46;;;;;;;3.00;0.50;;;;;;;4.08;100.00;100058.38;87034;271;22567;-70
2024/03/18 02:57:47;;;;;;;6.80;1.00;;;;;;;4.07;100.00;100060.64;86755;271;136857;-71
2024/03/18 02:59:47;;;;;;;4.10;0.70;;;;;;;4.05;100.00;100064.11;86969;271;25142;-70
2024/03/18 03:01:49;;;;;;;5.00;0.80;;;;;;;4.03;100.00;100069.83;86907;268;137551;-70
2024/03/18 03:03:57;;;;;;;3.20;1.40;;;;;;;4.01;100.00;100070.02;87160;274;22616;-69
2024/03/18 03:05:58;;;;;;;3.40;0.90;;;;;;;4.01;100.00;100066.27;87096;270;136361;-69
2024/03/18 03:07:59;;;;;;;4.50;1.20;;;;;;;4.02;100.00;100063.91;87156;278;22651;-69
2024/03/18 03:10:03;;;;;;;3.00;0.70;;;;;;;3.97;100.00;100058.58;86982;271;136157;-68
2024/03/18 03:12:04;;;;;;;6.50;1.40;;;;;;;3.92;100.00;100060.88;87440;274;137138;-70
2024/03/18 03:14:05;;;;;;;4.30;0.70;;;;;;;3.87;100.00;100061.94;87135;278;24014;-70
2024/03/18 03:16:12;;;;;;;1.40;0.40;;;;;;;3.88;100.00;100061.98;86999;271;136513;-70
2024/03/18 03:21:00;;;;;;;2.10;0.80;;;;;;;3.90;100.00;100054.40;85015;304;603398;-70
2024/03/18 03:23:01;;;;;;;4.90;1.30;;;;;;;3.98;100.00;100053.27;85944;288;23414;-69
2024/03/18 03:25:03;;;;;;;3.80;1.10;;;;;;;4.00;100.00;100051.65;85858;289;135694;-69
2024/03/18 03:27:04;;;;;;;2.00;1.00;;;;;;;4.00;100.00;100050.23;86392;288;25305;-71
2024/03/18 03:29:05;;;;;;;6.50;0.90;;;;;;;3.99;100.00;100051.71;86483;282;135707;-68
2024/03/18 03:31:13;;;;;;;2.90;0.80;;;;;;;3.98;100.00;100055.25;86482;286;22584;-69
2024/03/18 03:33:14;;;;;;;2.90;0.80;;;;;;;3.97;100.00;100055.44;86402;284;137118;-69
2024/03/18 03:35:15;;;;;;;3.40;0.70;;;;;;;4.00;100.00;100054.98;85970;281;784268;-70
2024/03/18 03:37:15;;;;;;;1.30;0.50;;;;;;;4.01;100.00;100048.52;86596;281;135716;-69
2024/03/18 03:39:16;;;;;;;1.80;0.90;;;;;;;4.00;100.00;100048.81;86579;282;22569;-68
2024/03/18 03:41:17;;;;;;;2.30;0.90;;;;;;;3.97;100.00;100049.34;86593;284;136667;-68
2024/03/18 03:43:18;;;;;;;3.20;1.10;;;;;;;3.97;100.00;100048.12;86477;273;22531;-73
2024/03/18 03:45:24;;;;;;;4.20;0.90;;;;;;;3.98;100.00;100051.29;86536;285;137115;-70
2024/03/18 03:47:26;;;;;;;1.40;0.50;;;;;;;4.00;100.00;100055.30;86713;277;22964;-68
2024/03/18 03:49:28;;;;;;;4.70;1.30;;;;;;;4.03;100.00;100053.42;86457;281;136636;-72
2024/03/18 03:51:29;;;;;;;3.00;1.00;;;;;;;4.01;100.00;100049.39;86386;282;24096;-69
2024/03/18 03:53:30;;;;;;;3.70;1.00;;;;;;;4.01;100.00;100055.05;86426;277;136999;-66
2024/03/18 03:55:31;;;;;;;3.10;1.10;;;;;;;4.02;100.00;100050.08;86533;281;25240;-68
2024/03/18 03:57:31;;;;;;;3.50;0.40;;;;;;;4.03;100.00;100050.67;86514;273;136816;-70
2024/03/18 03:59:32;;;;;;;2.30;0.70;;;;;;;4.05;100.00;100052.57;86576;280;23920;-69
2024/03/18 04:01:33;;;;;;;2.80;0.70;;;;;;;4.07;100.00;100050.44;86455;286;136076;-69
2024/03/18 04:03:33;;;;;;;2.90;1.10;;;;;;;4.05;100.00;100048.85;86457;281;22879;-68
2024/03/18 04:05:34;;;;;;;3.10;1.20;;;;;;;4.03;100.00;100055.39;86253;287;136451;-69
2024/03/18 04:07:35;;;;;;;2.30;0.50;;;;;;;4.00;100.00;100052.11;86383;287;22570;-68
2024/03/18 04:09:36;;;;;;;4.90;0.80;;;;;;;4.01;100.00;100052.55;86498;284;137022;-70
2024/03/18 04:11:38;;;;;;;1.90;0.70;;;;;;;4.01;100.00;100055.44;86669;284;22573;-70
2024/03/18 04:13:39;;;;;;;2.30;0.40;;;;;;;4.03;100.00;100052.95;86614;273;136668;-68
2024/03/18 04:15:41;;;;;;;2.40;0.60;;;;;;;4.05;100.00;100051.35;86500;281;22634;-71
2024/03/18 04:17:41;;;;;;;1.30;0.60;;;;;;;4.07;100.00;100049.00;86706;274;136024;-69
2024/03/18 04:19:42;;;;;;;3.00;0.70;;;;;;;4.08;100.00;100048.73;86734;284;24162;-70
2024/03/18 04:21:43;;;;;;;6.20;0.70;;;;;;;4.11;100.00;100051.09;86922;269;137876;-69
2024/03/18 04:23:44;;;;;;;1.90;0.40;;;;;;;4.12;100.00;100047.25;86961;274;22595;-70
2024/03/18 04:25:45;;;;;;;3.70;0.90;;;;;;;4.13;100.00;100049.10;86947;277;137362;-70
2024/03/18 04:27:47;;;;;;;1.70;0.70;;;;;;;4.15;100.00;100053.36;86893;273;22633;-69
2024/03/18 04:29:47;;;;;;;5.60;1.70;;;;;;;4.16;100.00;100048.46;87033;267;137855;-69
2024/03/18 04:31:48;;;;;;;4.20;0.40;;;;;;;4.18;100.00;100049.16;87136;273;22551;-69
2024/03/18 04:33:49;;;;;;;4.80;1.10;;;;;;;4.19;100.00;100048.13;87029;278;136599;-71
2024/03/18 04:35:50;;;;;;;7.30;0.80;;;;;;;4.21;100.00;100052.33;87133;276;24001;-71
2024/03/18 04:37:57;;;;;;;3.00;0.80;;;;;;;4.23;100.00;100052.73;87045;280;136526;-70
2024/03/18 04:39:58;;;;;;;2.40;1.70;;;;;;;4.22;100.00;100050.13;87129;274;24898;-69
2024/03/18 04:41:58;;;;;;;2.40;0.40;;;;;;;4.24;100.00;100052.61;87016;272;136264;-70
2024/03/18 04:43:59;;;;;;;5.40;0.60;;;;;;;4.26;100.00;100051.47;87001;267;24080;-70
2024/03/18 04:46:00;;;;;;;2.50;0.70;;;;;;;4.32;100.00;100054.06;86754;279;136749;-72
2024/03/18 04:48:02;;;;;;;5.00;1.00;;;;;;;4.36;100.00;100054.77;87006;270;22576;-69
2024/03/18 04:50:03;;;;;;;2.90;0.80;;;;;;;4.37;100.00;100055.20;86887;268;27861;-71
2024/03/18 04:52:04;;;;;;;2.20;0.40;;;;;;;4.37;100.00;100056.24;86822;280;136573;-71
2024/03/18 04:54:05;;;;;;;1.90;0.40;;;;;;;4.36;100.00;100056.86;86959;271;24145;-70
2024/03/18 04:56:07;;;;;;;4.50;0.60;;;;;;;4.35;100.00;100057.65;86843;272;136129;-68
2024/03/18 04:58:08;;;;;;;3.30;1.40;;;;;;;4.35;100.00;100058.23;87408;270;24415;-69
2024/03/18 05:00:13;;;;;;;4.30;0.90;;;;;;;4.35;100.00;100065.98;86839;280;137436;-74
2024/03/18 05:02:14;;;;;;;4.10;1.00;;;;;;;4.35;100.00;100068.70;86977;271;22561;-70
2024/03/18 05:04:15;;;;;;;4.50;1.70;;;;;;;4.33;100.00;100063.46;87027;270;137509;-69
2024/03/18 05:06:16;;;;;;;2.40;0.70;;;;;;;4.34;100.00;100066.59;86932;273;26780;-69
2024/03/18 05:08:17;;;;;;;2.80;0.70;;;;;;;4.33;100.00;100063.46;86885;272;136483;-66
2024/03/18 05:10:21;;;;;;;3.20;1.10;;;;;;;4.32;100.00;100067.11;86926;273;22540;-71
2024/03/18 05:12:22;;;;;;;7.50;0.90;;;;;;;4.34;100.00;100069.01;86702;274;136380;-70
2024/03/18 05:14:23;;;;;;;6.60;1.00;;;;;;;4.35;100.00;100069.22;86923;280;25305;-69
2024/03/18 05:16:27;;;;;;;6.10;1.70;;;;;;;4.36;100.00;100068.13;86825;271;136479;-70
2024/03/18 05:18:28;;;;;;;5.00;0.70;;;;;;;4.36;100.00;100067.70;86999;270;22556;-71
2024/03/18 05:20:30;;;;;;;4.70;1.70;;;;;;;4.39;100.00;100069.34;86973;271;136736;-65
2024/03/18 05:22:32;;;;;;;4.00;1.00;;;;;;;4.41;100.00;100070.21;87306;271;25342;-72
2024/03/18 05:24:33;;;;;;;2.30;0.90;;;;;;;4.43;100.00;100070.05;86833;268;136557;-71
2024/03/18 05:26:34;;;;;;;4.20;1.40;;;;;;;4.44;100.00;100066.20;86929;271;22576;-70
2024/03/18 05:28:35;;;;;;;3.10;1.20;;;;;;;4.43;100.00;100066.73;87004;272;136141;-70
2024/03/18 05:30:36;;;;;;;2.00;1.40;;;;;;;4.43;100.00;100067.05;86957;268;22847;-72
2024/03/18 05:32:37;;;;;;;3.50;1.50;;;;;;;4.43;100.00;100065.58;86775;269;135863;-71
2024/03/18 05:34:39;;;;;;;5.80;1.50;;;;;;;4.41;100.00;100069.65;87018;268;22572;-74
2024/03/18 05:36:40;;;;;;;6.20;1.70;;;;;;;4.14;100.00;100070.31;87070;267;137321;-73
2024/03/18 05:38:40;;;;;;;2.10;1.10;;;;;;;4.12;100.00;100077.02;86930;269;22826;-74
2024/03/18 05:40:41;;;;;;;4.20;1.70;;;;;;;4.14;100.00;100078.42;86900;280;136821;-74
2024/03/18 05:42:42;;;;;;;3.40;1.40;;;;;;;4.14;100.00;100080.15;86933;269;22571;-73
2024/03/18 05:44:43;;;;;;;5.60;1.60;;;;;;;4.13;100.00;100079.45;86941;276;136366;-74
2024/03/18 05:46:43;;;;;;;3.40;1.50;;;;;;;4.11;100.00;100081.70;86999;273;22579;-71
2024/03/18 05:48:44;;;;;;;3.60;2.00;;;;;;;4.07;100.00;100080.83;86834;277;136666;-75
2024/03/18 05:50:45;;;;;;;5.30;2.80;;;;;;;4.06;100.00;100081.13;87058;280;22575;-75
2024/03/18 05:52:46;;;;;;;5.10;2.50;;;;;;;4.06;100.00;100078.33;86964;269;136442;-72
2024/03/18 05:54:48;;;;;;;5.70;2.20;;;;;;;4.07;100.00;100081.84;86971;282;25298;-75
2024/03/18 05:56:49;;;;;;;6.90;2.40;;;;;;;4.08;100.00;100083.76;86729;275;137255;-75
2024/03/18 05:58:49;;;;;;;5.20;2.80;;;;;;;4.12;100.00;100084.27;86934;273;22933;-72
2024/03/18 06:00:51;;;;;;;6.70;3.60;;;;;;;4.17;100.00;100083.36;86864;280;136119;-75
2024/03/18 06:02:51;;;;;;;6.20;3.20;;;;;;;4.22;100.00;100079.01;86940;276;25245;-73
2024/03/18 06:04:52;;;;;;;5.20;3.50;;;;;;;4.28;100.00;100081.39;86889;271;136445;-76
2024/03/18 06:06:53;;;;;;;8.60;3.90;;;;;;;4.32;100.00;100081.13;86914;273;24118;-76
2024/03/18 06:08:54;;;;;;;7.80;3.70;;;;;;;4.37;100.00;100075.23;86842;271;136169;-75
2024/03/18 06:10:56;;;;;;;7.00;3.10;;;;;;;4.42;100.00;100073.52;86934;280;22562;-75
2024/03/18 06:12:57;;;;;;;8.80;3.90;;;;;;;4.41;100.00;100077.41;86877;272;136638;-74
2024/03/18 06:14:58;;;;;;;8.00;3.20;;;;;;;4.38;100.00;100077.91;86997;272;24004;-74
2024/03/18 06:16:59;;;;;;;6.40;4.10;;;;;;;4.40;100.00;100082.45;86991;279;137191;-73
2024/03/18 06:19:03;;;;;;;6.10;2.80;;;;;;;4.39;100.00;100078.15;87049;268;24001;-71
2024/03/18 06:21:04;;;;;;;7.80;3.80;;;;;;;4.38;100.00;100080.58;86916;276;138337;-73
2024/03/18 06:23:04;;;;;;;5.50;2.50;;;;;;;4.39;100.00;100077.16;86876;272;22617;-74
2024/03/18 06:27:25;;;;;;;5.50;2.70;;;;;;;4.44;100.00;100076.96;87633;272;25146;-76
2024/03/18 06:29:27;;;;;;;8.50;2.90;;;;;;;4.48;100.00;100073.59;86838;266;136359;-72
2024/03/18 06:31:28;;;;;;;5.30;2.90;;;;;;;4.53;100.00;100077.84;86809;282;22605;-73
2024/03/18 06:33:28;;;;;;;5.00;2.70;;;;;;;4.55;100.00;100079.23;86881;271;136108;-73
2024/03/18 06:35:29;;;;;;;3.80;2.20;;;;;;;4.60;100.00;100079.83;86872;278;22700;-73
2024/03/18 06:37:32;;;;;;;5.00;1.80;;;;;;;4.67;100.00;100079.90;86866;271;136528;-74
2024/03/18 06:39:33;;;;;;;4.30;2.30;;;;;;;4.72;100.00;100078.41;87404;279;23158;-73
2024/03/18 06:41:35;;;;;;;6.70;2.80;;;;;;;4.77;100.00;100077.34;87834;275;137311;-71
2024/03/18 06:43:38;;;;;;;5.20;2.10;;;;;;;4.81;100.00;100067.02;88471;268;22530;-73
2024/03/18 06:45:39;;;;;;;4.80;2.10;;;;;;;4.85;100.00;100067.69;88812;270;136665;-71
2024/03/18 06:47:39;;;;;;;3.10;1.20;;;;;;;4.93;100.00;100067.85;88964;266;22603;-73
2024/03/18 06:49:40;;;;;;;5.60;1.10;;;;;;;4.94;100.00;100068.39;88327;266;136712;-73
2024/03/18 06:51:41;;;;;;;6.50;2.00;;;;;;;4.96;100.00;100067.25;87970;269;22556;-74
2024/03/18 06:53:42;;;;;;;5.00;1.90;;;;;;;5.01;100.00;100064.20;87292;268;138220;-73
2024/03/18 06:55:45;;;;;;;4.10;1.30;;;;;;;5.06;100.00;100060.75;87419;276;22743;-74
2024/03/18 06:57:46;;;;;;;5.90;2.00;;;;;;;5.10;100.00;100059.02;87022;272;136675;-74
2024/03/18 06:59:47;;;;;;;5.60;1.30;;;;;;;5.15;100.00;100064.11;86962;274;22543;-75
2024/03/18 07:01:48;;;;;;;3.20;1.00;;;;;;;5.16;100.00;100061.75;87054;272;136533;-75
2024/03/18 07:03:49;;;;;;;4.80;1.50;;;;;;;5.11;100.00;100063.80;86951;270;25120;-73
2024/03/18 07:05:50;;;;;;;5.80;1.30;;;;;;;5.08;100.00;100063.73;86837;268;136385;-74
2024/03/18 07:07:51;;;;;;;4.20;1.70;;;;;;;5.05;100.00;100062.80;86998;273;24212;-74
2024/03/18 07:09:52;;;;;;;8.20;2.50;;;;;;;5.05;100.00;100064.19;86783;281;137759;-74
2024/03/18 07:11:53;;;;;;;3.60;1.20;;;;;;;5.09;100.00;100062.61;86837;272;22562;-74
2024/03/18 07:13:53;;;;;;;3.90;1.20;;;;;;;5.16;100.00;100066.13;86715;270;136526;-74
2024/03/18 07:15:55;;;;;;;4.40;1.30;;;;;;;5.19;100.00;100064.01;86941;271;22566;-74
2024/03/18 07:17:56;;;;;;;4.60;2.20;;;;;;;5.18;100.00;100064.09;87050;277;136200;-73
2024/03/18 07:19:56;;;;;;;5.20;0.90;;;;;;;5.18;100.00;100069.11;86934;279;22553;-76
2024/03/18 07:22:00;;;;;;;8.90;2.50;;;;;;;5.17;100.00;100070.40;86849;272;136698;-76
2024/03/18 07:24:01;;;;;;;4.10;1.80;;;;;;;5.13;100.00;100069.06;87504;273;22561;-75
2024/03/18 07:26:04;;;;;;;4.00;1.10;;;;;;;5.09;100.00;100062.31;86752;280;136547;-74
2024/03/18 07:28:05;;;;;;;3.60;1.30;;;;;;;5.03;100.00;100063.04;87522;278;137449;-74
2024/03/18 07:30:07;;;;;;;6.80;1.70;;;;;;;4.98;100.00;100061.61;86936;271;22569;-74
2024/03/18 07:32:08;;;;;;;7.50;2.00;;;;;;;4.95;100.00;100059.80;87364;271;137124;-72
2024/03/18 07:34:09;;;;;;;6.20;1.70;;;;;;;4.97;100.00;100060.51;86810;273;22575;-74
2024/03/18 07:36:10;;;;;;;4.80;2.10;;;;;;;5.03;100.00;100061.16;86792;268;137518;-73
2024/03/18 07:38:10;;;;;;;4.80;1.90;;;;;;;5.07;100.00;100059.07;86892;272;22587;-72
2024/03/18 07:40:11;;;;;;;3.00;1.40;;;;;;;5.11;100.00;100059.05;86765;271;136407;-75
2024/03/18 07:42:15;;;;;;;8.20;2.00;;;;;;;5.14;100.00;100058.89;86844;271;24549;-73
2024/03/18 07:44:16;;;;;;;4.50;1.80;;;;;;;5.20;100.00;100063.86;86670;280;136432;-76
2024/03/18 07:46:16;;;;;;;3.70;1.50;;;;;;;5.26;100.00;100060.99;86821;272;23884;-74
2024/03/18 07:48:17;;;;;;;5.10;2.70;;;;;;;5.30;100.00;100061.03;86752;273;137530;-75
2024/03/18 07:50:18;;;;;;;6.50;2.50;;;;;;;5.27;100.00;100063.70;86861;271;26387;-74
2024/03/18 07:52:20;;;;;;;6.60;2.50;;;;;;;5.28;100.00;100064.69;86802;271;136506;-72
2024/03/18 07:54:21;;;;;;;7.10;2.00;;;;;;;5.30;100.00;100061.09;86842;278;22568;-72
2024/03/18 07:56:22;;;;;;;2.90;2.20;;;;;;;5.32;100.00;100057.63;86884;272;136429;-71
2024/03/18 07:58:23;;;;;;;7.00;2.10;;;;;;;5.33;100.00;100059.08;86903;281;24065;-73
2024/03/18 08:00:24;;;;;;;3.80;2.00;;;;;;;5.32;100.00;100061.23;86846;271;136074;-72
2024/03/18 08:02:25;;;;;;;2.80;1.80;;;;;;;5.29;100.00;100055.08;86754;273;22572;-71
2024/03/18 08:04:26;;;;;;;6.90;2.10;;;;;;;5.29;100.00;100056.00;86733;280;137756;-72
2024/03/18 08:06:27;;;;;;;4.90;1.60;;;;;;;5.33;100.00;100057.50;87052;280;22646;-72
2024/03/18 08:08:27;;;;;;;6.70;1.90;;;;;;;5.37;100.00;100055.66;86829;273;137690;-72
2024/03/18 08:10:28;;;;;;;4.00;1.60;;;;;;;5.41;100.00;100055.18;86936;280;23952;-73
2024/03/18 08:12:29;;;;;;;6.10;1.50;;;;;;;5.43;100.00;100055.64;86917;276;137403;-72
2024/03/18 08:14:31;;;;;;;4.70;1.70;;;;;;;5.41;100.00;100053.82;86947;280;22575;-72
2024/03/18 08:16:32;;;;;;;7.60;2.70;;;;;;;5.39;100.00;100052.56;86718;265;136904;-71
2024/03/18 08:18:33;;;;;;;4.50;2.10;;;;;;;5.41;100.00;100051.84;86889;268;23538;-72
2024/03/18 08:20:33;;;;;;;3.50;1.60;;;;;;;5.43;100.00;100051.24;86855;273;136853;-72
2024/03/18 08:22:34;;;;;;;5.30;3.00;;;;;;;5.45;100.00;100047.55;86752;275;25239;-72
2024/03/18 08:24:36;;;;;;;3.00;1.80;;;;;;;5.46;100.00;100050.29;86806;281;137167;-73
2024/03/18 08:26:36;;;;;;;2.80;1.90;;;;;;;5.48;100.00;100047.92;86914;276;23459;-73
2024/03/18 08:28:37;;;;;;;4.50;2.00;;;;;;;5.53;100.00;100048.45;86792;271;136563;-72
2024/03/18 08:30:38;;;;;;;4.00;2.10;;;;;;;5.57;100.00;100049.96;86908;281;22554;-71
2024/03/18 08:32:39;;;;;;;3.30;2.10;;;;;;;5.58;100.00;100051.51;86823;271;136602;-72
2024/03/18 08:34:43;;;;;;;5.00;2.40;;;;;;;5.55;100.00;100052.66;86919;279;23881;-71
2024/03/18 08:36:44;;;;;;;4.60;2.70;;;;;;;5.53;100.00;100053.78;86866;270;136382;-72
2024/03/18 08:38:44;;;;;;;7.80;3.70;;;;;;;5.51;100.00;100052.55;86932;264;22528;-72
2024/03/18 08:40:52;;;;;;;6.90;2.30;;;;;;;5.47;100.00;100051.55;86784;272;136986;-73
2024/03/18 08:42:54;;;;;;;2.10;1.60;;;;;;;5.43;100.00;100053.10;88177;274;22765;-72
2024/03/18 08:44:56;;;;;;;5.90;1.90;;;;;;;5.40;100.00;100051.23;86799;272;136690;-71
2024/03/18 08:46:57;;;;;;;8.10;5.10;;;;;;;5.40;100.00;100048.63;86981;278;23139;-73
2024/03/18 08:48:58;;;;;;;8.40;3.60;;;;;;;5.41;100.00;100047.41;86881;266;136392;-72
2024/03/18 08:50:59;;;;;;;5.50;3.10;;;;;;;5.44;100.00;100047.29;86855;277;24059;-72
2024/03/18 08:53:00;;;;;;;4.20;1.70;;;;;;;5.48;100.00;100049.90;86815;270;137769;-73
2024/03/18 08:55:00;;;;;;;2.70;1.70;;;;;;;5.54;100.00;100050.08;87125;266;23280;-73
2024/03/18 08:57:01;;;;;;;5.70;2.40;;;;;;;5.59;100.00;100047.80;86850;270;136516;-74
2024/03/18 08:59:02;;;;;;;4.10;1.30;;;;;;;5.65;100.00;100047.06;87080;278;22573;-72
2024/03/18 09:01:03;;;;;;;5.50;2.40;;;;;;;5.71;100.00;100043.42;86913;272;136704;-71
2024/03/18 09:03:04;;;;;;;5.90;1.20;;;;;;;5.73;100.00;100040.76;87005;263;22586;-75
2024/03/18 09:05:07;;;;;;;2.70;1.30;;;;;;;5.68;100.00;100046.73;86941;272;136688;-73
2024/03/18 09:07:08;;;;;;;4.10;0.90;;;;;;;5.59;100.00;100043.21;87600;280;24011;-73
2024/03/18 09:09:11;;;;;;;2.80;1.20;;;;;;;5.52;100.00;100045.22;86717;274;136751;-72
2024/03/18 09:11:12;;;;;;;6.60;1.70;;;;;;;5.50;100.00;100042.86;87204;268;22566;-77
2024/03/18 09:13:14;;;;;;;3.20;0.70;;;;;;;5.54;100.00;100043.46;86900;270;136881;-75
2024/03/18 09:15:15;;;;;;;2.20;0.80;;;;;;;5.54;100.00;100045.71;87204;278;22652;-73
2024/03/18 09:17:15;;;;;;;5.80;1.80;;;;;;;5.53;100.00;100043.20;86801;271;136492;-73
2024/03/18 09:19:16;;;;;;;2.40;1.10;;;;;;;5.56;100.00;100046.61;86947;268;22567;-71
2024/03/18 09:21:17;;;;;;;4.30;1.10;;;;;;;5.60;100.00;100043.48;86734;271;136729;-72
2024/03/18 09:23:17;;;;;;;3.00;1.10;;;;;;;5.65;100.00;100037.51;86826;272;23590;-74
2024/03/18 09:25:18;;;;;;;5.30;1.00;;;;;;;5.69;100.00;100040.84;86811;267;137442;-71
2024/03/18 09:27:19;;;;;;;3.50;1.40;;;;;;;5.68;100.00;100042.36;86809;268;22568;-74
2024/03/18 09:29:20;;;;;;;4.10;1.90;;;;;;;5.66;100.00;100042.00;86731;277;136772;-73
2024/03/18 09:31:20;;;;;;;1.80;0.70;;;;;;;5.64;100.00;100040.44;86752;273;24029;-74
2024/03/18 09:33:21;;;;;;;2.20;1.00;;;;;;;5.58;100.00;100039.98;86888;276;137242;-71